sensor_id;sensor_type;location;lat;lon;timestamp;P1;durP1;ratioP1;P2;durP2;ratioP2
9968;SDS011;5025;48.890;9.278;2022-09-16T00:00:59;3.70;;;3.50;;
9968;SDS011;5025;48.890;9.278;2022-09-16T00:03:25;4.07;;;3.77;;
9968;SDS011;5025;48.890;9.278;2022-09-16T00:05:51;3.63;;;3.43;;
9968;SDS011;5025;48.890;9.278;2022-09-16T00:08:18;3.90;;;3.70;;
9968;SDS011;5025;48.890;9.278;2022-09-16T00:10:45;4.03;;;3.77;;
9968;SDS011;5025;48.890;9.278;2022-09-16T00:13:11;4.10;;;3.80;;
9968;SDS011;5025;48.890;9.278;2022-09-16T00:15:37;3.87;;;3.67;;
9968;SDS011;5025;48.890;9.278;2022-09-16T00:18:06;3.63;;;3.43;;
9968;SDS011;5025;48.890;9.278;2022-09-16T00:20:31;3.70;;;3.50;;
9968;SDS011;5025;48.890;9.278;2022-09-16T00:22:57;3.70;;;3.50;;
9968;SDS011;5025;48.890;9.278;2022-09-16T00:25:22;3.67;;;3.47;;
9968;SDS011;5025;48.890;9.278;2022-09-16T00:27:47;4.00;;;3.70;;
9968;SDS011;5025;48.890;9.278;2022-09-16T00:30:13;4.03;;;3.80;;
9968;SDS011;5025;48.890;9.278;2022-09-16T00:32:39;3.70;;;3.50;;
9968;SDS011;5025;48.890;9.278;2022-09-16T00:35:04;3.67;;;3.40;;
9968;SDS011;5025;48.890;9.278;2022-09-16T00:37:31;4.27;;;3.93;;
9968;SDS011;5025;48.890;9.278;2022-09-16T00:39:57;3.77;;;3.57;;
9968;SDS011;5025;48.890;9.278;2022-09-16T00:42:22;3.67;;;3.47;;
9968;SDS011;5025;48.890;9.278;2022-09-16T00:45:01;3.80;;;3.60;;
9968;SDS011;5025;48.890;9.278;2022-09-16T00:47:42;4.00;;;3.70;;
9968;SDS011;5025;48.890;9.278;2022-09-16T00:50:20;3.50;;;3.30;;
9968;SDS011;5025;48.890;9.278;2022-09-16T00:52:52;3.90;;;3.60;;
9968;SDS011;5025;48.890;9.278;2022-09-16T00:55:20;3.67;;;3.47;;
9968;SDS011;5025;48.890;9.278;2022-09-16T00:57:51;3.67;;;3.43;;
9968;SDS011;5025;48.890;9.278;2022-09-16T01:00:19;3.53;;;3.33;;
9968;SDS011;5025;48.890;9.278;2022-09-16T01:02:44;4.10;;;3.80;;
9968;SDS011;5025;48.890;9.278;2022-09-16T01:05:13;3.80;;;3.60;;
9968;SDS011;5025;48.890;9.278;2022-09-16T01:07:42;3.93;;;3.63;;
9968;SDS011;5025;48.890;9.278;2022-09-16T01:10:09;3.93;;;3.50;;
9968;SDS011;5025;48.890;9.278;2022-09-16T01:12:37;4.00;;;3.80;;
9968;SDS011;5025;48.890;9.278;2022-09-16T01:15:06;4.20;;;3.90;;
9968;SDS011;5025;48.890;9.278;2022-09-16T01:20:20;4.90;;;4.40;;
9968;SDS011;5025;48.890;9.278;2022-09-16T01:28:51;4.10;;;3.77;;
9968;SDS011;5025;48.890;9.278;2022-09-16T01:31:22;4.17;;;3.87;;
9968;SDS011;5025;48.890;9.278;2022-09-16T01:36:53;4.50;;;4.10;;
9968;SDS011;5025;48.890;9.278;2022-09-16T01:39:29;4.50;;;4.13;;
9968;SDS011;5025;48.890;9.278;2022-09-16T01:44:41;5.03;;;4.13;;
9968;SDS011;5025;48.890;9.278;2022-09-16T01:47:16;4.00;;;3.70;;
9968;SDS011;5025;48.890;9.278;2022-09-16T01:49:49;4.33;;;4.03;;
9968;SDS011;5025;48.890;9.278;2022-09-16T01:52:27;4.00;;;3.70;;
9968;SDS011;5025;48.890;9.278;2022-09-16T01:55:14;4.30;;;3.90;;
9968;SDS011;5025;48.890;9.278;2022-09-16T02:00:40;3.70;;;3.50;;
9968;SDS011;5025;48.890;9.278;2022-09-16T02:03:23;3.70;;;3.40;;
9968;SDS011;5025;48.890;9.278;2022-09-16T02:05:54;3.80;;;3.60;;
9968;SDS011;5025;48.890;9.278;2022-09-16T02:08:28;3.60;;;3.40;;
9968;SDS011;5025;48.890;9.278;2022-09-16T02:10:57;4.10;;;3.70;;
9968;SDS011;5025;48.890;9.278;2022-09-16T02:13:27;3.20;;;3.00;;
9968;SDS011;5025;48.890;9.278;2022-09-16T02:15:59;3.50;;;3.30;;
9968;SDS011;5025;48.890;9.278;2022-09-16T02:18:30;3.53;;;3.30;;
9968;SDS011;5025;48.890;9.278;2022-09-16T02:20:59;3.60;;;3.30;;
9968;SDS011;5025;48.890;9.278;2022-09-16T02:23:38;3.10;;;2.90;;
9968;SDS011;5025;48.890;9.278;2022-09-16T02:26:08;3.30;;;3.10;;
9968;SDS011;5025;48.890;9.278;2022-09-16T02:28:37;3.30;;;3.00;;
9968;SDS011;5025;48.890;9.278;2022-09-16T02:31:06;3.43;;;3.13;;
9968;SDS011;5025;48.890;9.278;2022-09-16T02:33:34;3.47;;;3.27;;
9968;SDS011;5025;48.890;9.278;2022-09-16T02:36:05;3.57;;;3.27;;
9968;SDS011;5025;48.890;9.278;2022-09-16T02:38:39;3.20;;;3.00;;
9968;SDS011;5025;48.890;9.278;2022-09-16T02:41:08;3.30;;;3.10;;
9968;SDS011;5025;48.890;9.278;2022-09-16T02:43:38;3.60;;;3.30;;
9968;SDS011;5025;48.890;9.278;2022-09-16T02:46:07;3.50;;;3.30;;
9968;SDS011;5025;48.890;9.278;2022-09-16T02:56:46;3.23;;;3.03;;
9968;SDS011;5025;48.890;9.278;2022-09-16T02:59:12;3.30;;;3.10;;
9968;SDS011;5025;48.890;9.278;2022-09-16T03:01:40;3.50;;;3.30;;
9968;SDS011;5025;48.890;9.278;2022-09-16T03:04:08;3.20;;;3.00;;
9968;SDS011;5025;48.890;9.278;2022-09-16T03:06:34;3.60;;;3.40;;
9968;SDS011;5025;48.890;9.278;2022-09-16T03:09:00;3.57;;;3.27;;
9968;SDS011;5025;48.890;9.278;2022-09-16T03:14:05;3.80;;;3.50;;
9968;SDS011;5025;48.890;9.278;2022-09-16T03:25:01;3.40;;;3.20;;
9968;SDS011;5025;48.890;9.278;2022-09-16T03:27:50;3.27;;;3.07;;
9968;SDS011;5025;48.890;9.278;2022-09-16T03:30:22;3.17;;;2.97;;
9968;SDS011;5025;48.890;9.278;2022-09-16T03:35:29;3.50;;;3.20;;
9968;SDS011;5025;48.890;9.278;2022-09-16T03:38:00;3.50;;;3.30;;
9968;SDS011;5025;48.890;9.278;2022-09-16T03:40:28;3.60;;;3.00;;
9968;SDS011;5025;48.890;9.278;2022-09-16T03:42:56;3.50;;;3.20;;
9968;SDS011;5025;48.890;9.278;2022-09-16T03:45:22;3.20;;;3.00;;
9968;SDS011;5025;48.890;9.278;2022-09-16T03:47:48;3.23;;;3.03;;
9968;SDS011;5025;48.890;9.278;2022-09-16T03:50:15;3.10;;;2.90;;
9968;SDS011;5025;48.890;9.278;2022-09-16T03:52:41;2.93;;;2.73;;
9968;SDS011;5025;48.890;9.278;2022-09-16T03:55:07;3.23;;;2.90;;
9968;SDS011;5025;48.890;9.278;2022-09-16T03:57:34;2.90;;;2.70;;
9968;SDS011;5025;48.890;9.278;2022-09-16T04:00:00;2.67;;;2.57;;
9968;SDS011;5025;48.890;9.278;2022-09-16T04:02:26;2.87;;;2.67;;
9968;SDS011;5025;48.890;9.278;2022-09-16T04:04:51;2.87;;;2.67;;
9968;SDS011;5025;48.890;9.278;2022-09-16T04:07:17;2.67;;;2.57;;
9968;SDS011;5025;48.890;9.278;2022-09-16T04:09:42;3.10;;;2.90;;
9968;SDS011;5025;48.890;9.278;2022-09-16T04:12:07;2.90;;;2.60;;
9968;SDS011;5025;48.890;9.278;2022-09-16T04:14:33;2.50;;;2.40;;
9968;SDS011;5025;48.890;9.278;2022-09-16T04:16:59;3.17;;;2.97;;
9968;SDS011;5025;48.890;9.278;2022-09-16T04:19:25;3.00;;;2.80;;
9968;SDS011;5025;48.890;9.278;2022-09-16T04:21:50;2.50;;;2.40;;
9968;SDS011;5025;48.890;9.278;2022-09-16T04:24:16;2.77;;;2.57;;
9968;SDS011;5025;48.890;9.278;2022-09-16T04:26:41;2.70;;;2.60;;
9968;SDS011;5025;48.890;9.278;2022-09-16T04:29:07;2.97;;;2.50;;
9968;SDS011;5025;48.890;9.278;2022-09-16T04:31:33;2.80;;;2.70;;
9968;SDS011;5025;48.890;9.278;2022-09-16T04:33:59;2.60;;;2.40;;
9968;SDS011;5025;48.890;9.278;2022-09-16T04:36:26;2.63;;;2.43;;
9968;SDS011;5025;48.890;9.278;2022-09-16T04:38:51;2.60;;;2.50;;
9968;SDS011;5025;48.890;9.278;2022-09-16T04:41:18;2.63;;;2.40;;
9968;SDS011;5025;48.890;9.278;2022-09-16T04:43:44;2.77;;;2.57;;
9968;SDS011;5025;48.890;9.278;2022-09-16T04:46:10;2.80;;;2.60;;
9968;SDS011;5025;48.890;9.278;2022-09-16T04:48:36;2.60;;;2.50;;
9968;SDS011;5025;48.890;9.278;2022-09-16T04:51:03;2.83;;;2.63;;
9968;SDS011;5025;48.890;9.278;2022-09-16T04:53:30;2.70;;;2.60;;
9968;SDS011;5025;48.890;9.278;2022-09-16T04:56:06;2.80;;;2.60;;
9968;SDS011;5025;48.890;9.278;2022-09-16T04:58:49;2.57;;;2.47;;
9968;SDS011;5025;48.890;9.278;2022-09-16T05:01:17;3.03;;;2.40;;
9968;SDS011;5025;48.890;9.278;2022-09-16T05:03:48;2.73;;;2.53;;
9968;SDS011;5025;48.890;9.278;2022-09-16T05:06:16;2.70;;;2.50;;
9968;SDS011;5025;48.890;9.278;2022-09-16T05:08:46;2.70;;;2.50;;
9968;SDS011;5025;48.890;9.278;2022-09-16T05:11:14;2.60;;;2.50;;
9968;SDS011;5025;48.890;9.278;2022-09-16T05:13:41;3.47;;;3.17;;
9968;SDS011;5025;48.890;9.278;2022-09-16T05:16:08;2.80;;;2.60;;
9968;SDS011;5025;48.890;9.278;2022-09-16T05:18:39;3.00;;;2.80;;
9968;SDS011;5025;48.890;9.278;2022-09-16T05:21:06;3.30;;;3.10;;
9968;SDS011;5025;48.890;9.278;2022-09-16T05:23:37;3.00;;;2.80;;
9968;SDS011;5025;48.890;9.278;2022-09-16T05:26:04;3.40;;;2.90;;
9968;SDS011;5025;48.890;9.278;2022-09-16T05:28:30;3.13;;;2.83;;
9968;SDS011;5025;48.890;9.278;2022-09-16T05:31:06;2.83;;;2.67;;
9968;SDS011;5025;48.890;9.278;2022-09-16T05:33:55;3.10;;;2.90;;
9968;SDS011;5025;48.890;9.278;2022-09-16T05:36:22;3.07;;;2.87;;
9968;SDS011;5025;48.890;9.278;2022-09-16T05:38:49;2.93;;;2.73;;
9968;SDS011;5025;48.890;9.278;2022-09-16T05:41:14;3.47;;;3.20;;
9968;SDS011;5025;48.890;9.278;2022-09-16T05:43:40;2.80;;;2.60;;
9968;SDS011;5025;48.890;9.278;2022-09-16T05:46:05;3.07;;;2.93;;
9968;SDS011;5025;48.890;9.278;2022-09-16T05:48:31;3.43;;;3.00;;
9968;SDS011;5025;48.890;9.278;2022-09-16T05:50:58;3.47;;;2.53;;
9968;SDS011;5025;48.890;9.278;2022-09-16T05:53:27;2.80;;;2.70;;
9968;SDS011;5025;48.890;9.278;2022-09-16T05:55:54;3.00;;;2.80;;
9968;SDS011;5025;48.890;9.278;2022-09-16T05:58:23;2.87;;;2.77;;
9968;SDS011;5025;48.890;9.278;2022-09-16T06:00:50;2.97;;;2.77;;
9968;SDS011;5025;48.890;9.278;2022-09-16T06:03:16;3.10;;;2.90;;
9968;SDS011;5025;48.890;9.278;2022-09-16T06:05:41;3.30;;;3.10;;
9968;SDS011;5025;48.890;9.278;2022-09-16T06:08:06;3.23;;;3.00;;
9968;SDS011;5025;48.890;9.278;2022-09-16T06:10:36;3.33;;;2.97;;
9968;SDS011;5025;48.890;9.278;2022-09-16T06:13:02;3.17;;;2.97;;
9968;SDS011;5025;48.890;9.278;2022-09-16T06:15:27;3.13;;;2.93;;
9968;SDS011;5025;48.890;9.278;2022-09-16T06:17:53;3.10;;;2.90;;
9968;SDS011;5025;48.890;9.278;2022-09-16T06:20:18;3.60;;;3.30;;
9968;SDS011;5025;48.890;9.278;2022-09-16T06:22:44;3.33;;;3.10;;
9968;SDS011;5025;48.890;9.278;2022-09-16T06:25:10;3.50;;;3.30;;
9968;SDS011;5025;48.890;9.278;2022-09-16T06:27:35;4.13;;;2.90;;
9968;SDS011;5025;48.890;9.278;2022-09-16T06:30:01;3.23;;;3.03;;
9968;SDS011;5025;48.890;9.278;2022-09-16T06:32:29;3.40;;;3.10;;
9968;SDS011;5025;48.890;9.278;2022-09-16T06:34:55;3.13;;;2.93;;
9968;SDS011;5025;48.890;9.278;2022-09-16T06:37:21;2.97;;;2.80;;
9968;SDS011;5025;48.890;9.278;2022-09-16T06:39:46;3.30;;;3.00;;
9968;SDS011;5025;48.890;9.278;2022-09-16T06:42:11;3.00;;;2.80;;
9968;SDS011;5025;48.890;9.278;2022-09-16T06:44:36;2.77;;;2.57;;
9968;SDS011;5025;48.890;9.278;2022-09-16T06:47:02;3.00;;;2.80;;
9968;SDS011;5025;48.890;9.278;2022-09-16T06:49:27;2.40;;;2.30;;
9968;SDS011;5025;48.890;9.278;2022-09-16T06:51:52;2.90;;;2.70;;
9968;SDS011;5025;48.890;9.278;2022-09-16T06:54:18;2.80;;;2.60;;
9968;SDS011;5025;48.890;9.278;2022-09-16T06:56:43;3.03;;;2.67;;
9968;SDS011;5025;48.890;9.278;2022-09-16T06:59:09;2.80;;;2.70;;
9968;SDS011;5025;48.890;9.278;2022-09-16T07:01:35;2.47;;;2.27;;
9968;SDS011;5025;48.890;9.278;2022-09-16T07:04:04;2.70;;;2.50;;
9968;SDS011;5025;48.890;9.278;2022-09-16T07:06:32;2.60;;;2.40;;
9968;SDS011;5025;48.890;9.278;2022-09-16T07:08:58;2.40;;;2.30;;
9968;SDS011;5025;48.890;9.278;2022-09-16T07:11:23;2.37;;;2.10;;
9968;SDS011;5025;48.890;9.278;2022-09-16T07:13:49;1.97;;;1.87;;
9968;SDS011;5025;48.890;9.278;2022-09-16T07:16:19;2.23;;;2.07;;
9968;SDS011;5025;48.890;9.278;2022-09-16T07:18:52;2.10;;;1.90;;
9968;SDS011;5025;48.890;9.278;2022-09-16T07:21:19;1.80;;;1.63;;
9968;SDS011;5025;48.890;9.278;2022-09-16T07:23:47;2.43;;;2.00;;
9968;SDS011;5025;48.890;9.278;2022-09-16T07:26:13;1.80;;;1.70;;
9968;SDS011;5025;48.890;9.278;2022-09-16T07:28:44;2.90;;;2.67;;
9968;SDS011;5025;48.890;9.278;2022-09-16T07:31:15;2.00;;;1.90;;
9968;SDS011;5025;48.890;9.278;2022-09-16T07:33:43;2.23;;;1.80;;
9968;SDS011;5025;48.890;9.278;2022-09-16T07:36:10;1.90;;;1.80;;
9968;SDS011;5025;48.890;9.278;2022-09-16T07:38:37;1.70;;;1.60;;
9968;SDS011;5025;48.890;9.278;2022-09-16T07:41:07;1.70;;;1.60;;
9968;SDS011;5025;48.890;9.278;2022-09-16T07:43:33;1.63;;;1.53;;
9968;SDS011;5025;48.890;9.278;2022-09-16T07:45:58;1.70;;;1.60;;
9968;SDS011;5025;48.890;9.278;2022-09-16T07:48:24;1.50;;;1.40;;
9968;SDS011;5025;48.890;9.278;2022-09-16T07:50:56;1.60;;;1.50;;
9968;SDS011;5025;48.890;9.278;2022-09-16T07:53:23;1.50;;;1.40;;
9968;SDS011;5025;48.890;9.278;2022-09-16T07:55:48;1.83;;;1.60;;
9968;SDS011;5025;48.890;9.278;2022-09-16T07:58:14;2.33;;;1.70;;
9968;SDS011;5025;48.890;9.278;2022-09-16T08:00:41;2.23;;;1.47;;
9968;SDS011;5025;48.890;9.278;2022-09-16T08:03:07;3.27;;;1.80;;
9968;SDS011;5025;48.890;9.278;2022-09-16T08:05:32;2.37;;;1.60;;
9968;SDS011;5025;48.890;9.278;2022-09-16T08:07:57;2.77;;;1.90;;
9968;SDS011;5025;48.890;9.278;2022-09-16T08:10:23;1.80;;;1.70;;
9968;SDS011;5025;48.890;9.278;2022-09-16T08:12:48;2.20;;;2.00;;
9968;SDS011;5025;48.890;9.278;2022-09-16T08:15:14;2.23;;;2.03;;
9968;SDS011;5025;48.890;9.278;2022-09-16T08:17:39;2.10;;;1.90;;
9968;SDS011;5025;48.890;9.278;2022-09-16T08:20:05;2.60;;;1.93;;
9968;SDS011;5025;48.890;9.278;2022-09-16T08:22:31;2.37;;;2.10;;
9968;SDS011;5025;48.890;9.278;2022-09-16T08:24:56;2.20;;;2.03;;
9968;SDS011;5025;48.890;9.278;2022-09-16T08:27:21;2.63;;;2.00;;
9968;SDS011;5025;48.890;9.278;2022-09-16T08:29:47;2.63;;;2.13;;
9968;SDS011;5025;48.890;9.278;2022-09-16T08:32:13;2.53;;;2.33;;
9968;SDS011;5025;48.890;9.278;2022-09-16T08:34:39;3.63;;;2.50;;
9968;SDS011;5025;48.890;9.278;2022-09-16T08:37:04;2.77;;;2.57;;
9968;SDS011;5025;48.890;9.278;2022-09-16T08:39:30;2.93;;;2.40;;
9968;SDS011;5025;48.890;9.278;2022-09-16T08:42:12;2.90;;;2.70;;
9968;SDS011;5025;48.890;9.278;2022-09-16T08:50:32;5.10;;;3.13;;
9968;SDS011;5025;48.890;9.278;2022-09-16T08:52:58;4.07;;;3.63;;
9968;SDS011;5025;48.890;9.278;2022-09-16T08:55:31;3.67;;;3.10;;
9968;SDS011;5025;48.890;9.278;2022-09-16T08:58:15;4.37;;;3.30;;
9968;SDS011;5025;48.890;9.278;2022-09-16T09:00:43;3.80;;;3.30;;
9968;SDS011;5025;48.890;9.278;2022-09-16T09:03:15;3.50;;;3.30;;
9968;SDS011;5025;48.890;9.278;2022-09-16T09:05:51;3.60;;;3.30;;
9968;SDS011;5025;48.890;9.278;2022-09-16T09:08:22;3.47;;;3.17;;
9968;SDS011;5025;48.890;9.278;2022-09-16T09:13:38;3.23;;;3.03;;
9968;SDS011;5025;48.890;9.278;2022-09-16T09:24:52;3.87;;;3.57;;
9968;SDS011;5025;48.890;9.278;2022-09-16T09:41:33;3.93;;;3.53;;
9968;SDS011;5025;48.890;9.278;2022-09-16T09:46:54;4.27;;;3.80;;
9968;SDS011;5025;48.890;9.278;2022-09-16T09:49:30;4.93;;;4.50;;
9968;SDS011;5025;48.890;9.278;2022-09-16T09:52:07;4.03;;;3.70;;
9968;SDS011;5025;48.890;9.278;2022-09-16T09:54:40;4.33;;;3.93;;
9968;SDS011;5025;48.890;9.278;2022-09-16T09:59:59;4.40;;;4.03;;
9968;SDS011;5025;48.890;9.278;2022-09-16T10:02:36;5.00;;;3.83;;
9968;SDS011;5025;48.890;9.278;2022-09-16T10:05:04;5.00;;;3.53;;
9968;SDS011;5025;48.890;9.278;2022-09-16T10:07:31;3.43;;;3.10;;
9968;SDS011;5025;48.890;9.278;2022-09-16T10:12:45;5.13;;;3.53;;
9968;SDS011;5025;48.890;9.278;2022-09-16T10:15:21;4.17;;;3.53;;
9968;SDS011;5025;48.890;9.278;2022-09-16T10:17:54;5.17;;;3.70;;
9968;SDS011;5025;48.890;9.278;2022-09-16T10:20:34;3.90;;;3.53;;
9968;SDS011;5025;48.890;9.278;2022-09-16T10:23:03;4.53;;;3.70;;
9968;SDS011;5025;48.890;9.278;2022-09-16T10:25:31;4.00;;;3.60;;
9968;SDS011;5025;48.890;9.278;2022-09-16T10:28:01;3.93;;;3.57;;
9968;SDS011;5025;48.890;9.278;2022-09-16T10:30:30;3.43;;;3.03;;
9968;SDS011;5025;48.890;9.278;2022-09-16T10:33:10;5.40;;;3.67;;
9968;SDS011;5025;48.890;9.278;2022-09-16T10:35:38;4.30;;;3.90;;
9968;SDS011;5025;48.890;9.278;2022-09-16T10:38:19;4.23;;;3.87;;
9968;SDS011;5025;48.890;9.278;2022-09-16T10:40:53;4.10;;;3.80;;
9968;SDS011;5025;48.890;9.278;2022-09-16T10:43:22;4.13;;;3.70;;
9968;SDS011;5025;48.890;9.278;2022-09-16T10:45:50;3.93;;;3.53;;
9968;SDS011;5025;48.890;9.278;2022-09-16T10:48:22;3.80;;;3.50;;
9968;SDS011;5025;48.890;9.278;2022-09-16T10:51:00;3.93;;;3.53;;
9968;SDS011;5025;48.890;9.278;2022-09-16T10:53:35;5.10;;;3.40;;
9968;SDS011;5025;48.890;9.278;2022-09-16T10:56:14;3.40;;;3.20;;
9968;SDS011;5025;48.890;9.278;2022-09-16T10:58:42;3.70;;;3.40;;
9968;SDS011;5025;48.890;9.278;2022-09-16T11:04:27;3.00;;;2.80;;
9968;SDS011;5025;48.890;9.278;2022-09-16T11:13:03;3.63;;;3.00;;
9968;SDS011;5025;48.890;9.278;2022-09-16T11:16:26;4.07;;;3.10;;
9968;SDS011;5025;48.890;9.278;2022-09-16T11:18:31;3.83;;;3.40;;
9968;SDS011;5025;48.890;9.278;2022-09-16T11:31:59;6.17;;;4.77;;
9968;SDS011;5025;48.890;9.278;2022-09-16T11:35:14;3.93;;;3.40;;
9968;SDS011;5025;48.890;9.278;2022-09-16T11:37:28;4.63;;;3.20;;
9968;SDS011;5025;48.890;9.278;2022-09-16T11:45:56;4.57;;;3.00;;
9968;SDS011;5025;48.890;9.278;2022-09-16T11:51:07;3.30;;;2.50;;
9968;SDS011;5025;48.890;9.278;2022-09-16T11:56:36;3.17;;;2.40;;
9968;SDS011;5025;48.890;9.278;2022-09-16T11:59:10;2.87;;;2.37;;
9968;SDS011;5025;48.890;9.278;2022-09-16T12:01:44;2.40;;;2.20;;
9968;SDS011;5025;48.890;9.278;2022-09-16T12:06:51;4.93;;;2.47;;
9968;SDS011;5025;48.890;9.278;2022-09-16T12:12:17;2.87;;;1.90;;
9968;SDS011;5025;48.890;9.278;2022-09-16T12:15:00;3.67;;;2.10;;
9968;SDS011;5025;48.890;9.278;2022-09-16T12:17:34;4.17;;;1.60;;
9968;SDS011;5025;48.890;9.278;2022-09-16T12:20:23;2.87;;;2.00;;
9968;SDS011;5025;48.890;9.278;2022-09-16T12:22:54;4.93;;;1.80;;
9968;SDS011;5025;48.890;9.278;2022-09-16T12:25:31;2.67;;;2.00;;
9968;SDS011;5025;48.890;9.278;2022-09-16T12:28:11;1.77;;;1.67;;
9968;SDS011;5025;48.890;9.278;2022-09-16T12:30:41;2.30;;;1.70;;
9968;SDS011;5025;48.890;9.278;2022-09-16T12:33:18;3.57;;;1.80;;
9968;SDS011;5025;48.890;9.278;2022-09-16T12:38:28;3.17;;;1.70;;
9968;SDS011;5025;48.890;9.278;2022-09-16T12:57:15;3.17;;;1.80;;
9968;SDS011;5025;48.890;9.278;2022-09-16T13:02:27;4.00;;;1.53;;
9968;SDS011;5025;48.890;9.278;2022-09-16T13:04:59;3.07;;;1.63;;
9968;SDS011;5025;48.890;9.278;2022-09-16T13:07:34;1.83;;;1.60;;
9968;SDS011;5025;48.890;9.278;2022-09-16T13:12:55;1.80;;;1.60;;
9968;SDS011;5025;48.890;9.278;2022-09-16T13:15:37;2.33;;;1.80;;
9968;SDS011;5025;48.890;9.278;2022-09-16T13:18:08;3.40;;;1.70;;
9968;SDS011;5025;48.890;9.278;2022-09-16T13:20:47;1.70;;;1.60;;
9968;SDS011;5025;48.890;9.278;2022-09-16T13:23:17;3.63;;;1.80;;
9968;SDS011;5025;48.890;9.278;2022-09-16T13:33:48;2.23;;;1.40;;
9968;SDS011;5025;48.890;9.278;2022-09-16T13:36:38;1.50;;;1.40;;
9968;SDS011;5025;48.890;9.278;2022-09-16T13:39:05;1.60;;;1.50;;
9968;SDS011;5025;48.890;9.278;2022-09-16T13:41:35;2.73;;;1.90;;
9968;SDS011;5025;48.890;9.278;2022-09-16T13:49:31;2.00;;;1.50;;
9968;SDS011;5025;48.890;9.278;2022-09-16T13:51:58;1.97;;;1.67;;
9968;SDS011;5025;48.890;9.278;2022-09-16T13:54:53;1.63;;;1.50;;
9968;SDS011;5025;48.890;9.278;2022-09-16T13:57:25;4.53;;;1.57;;
9968;SDS011;5025;48.890;9.278;2022-09-16T14:00:11;2.10;;;1.77;;
9968;SDS011;5025;48.890;9.278;2022-09-16T14:02:52;1.80;;;1.70;;
9968;SDS011;5025;48.890;9.278;2022-09-16T14:05:44;2.63;;;1.73;;
9968;SDS011;5025;48.890;9.278;2022-09-16T14:14:10;1.90;;;1.57;;
9968;SDS011;5025;48.890;9.278;2022-09-16T14:16:41;2.10;;;1.90;;
9968;SDS011;5025;48.890;9.278;2022-09-16T14:19:25;2.27;;;1.67;;
9968;SDS011;5025;48.890;9.278;2022-09-16T14:22:10;2.57;;;1.70;;
9968;SDS011;5025;48.890;9.278;2022-09-16T14:24:40;2.63;;;1.70;;
9968;SDS011;5025;48.890;9.278;2022-09-16T14:30:04;1.93;;;1.73;;
9968;SDS011;5025;48.890;9.278;2022-09-16T14:32:37;2.33;;;1.43;;
9968;SDS011;5025;48.890;9.278;2022-09-16T14:35:07;3.20;;;1.77;;
9968;SDS011;5025;48.890;9.278;2022-09-16T14:37:36;1.47;;;1.37;;
9968;SDS011;5025;48.890;9.278;2022-09-16T14:40:04;3.10;;;1.67;;
9968;SDS011;5025;48.890;9.278;2022-09-16T14:42:35;2.10;;;1.40;;
9968;SDS011;5025;48.890;9.278;2022-09-16T14:45:01;2.67;;;1.60;;
9968;SDS011;5025;48.890;9.278;2022-09-16T14:47:29;2.23;;;1.40;;
9968;SDS011;5025;48.890;9.278;2022-09-16T14:50:02;1.40;;;1.27;;
9968;SDS011;5025;48.890;9.278;2022-09-16T14:52:31;2.10;;;1.40;;
9968;SDS011;5025;48.890;9.278;2022-09-16T14:54:58;1.77;;;1.33;;
9968;SDS011;5025;48.890;9.278;2022-09-16T14:57:24;3.10;;;1.80;;
9968;SDS011;5025;48.890;9.278;2022-09-16T14:59:52;2.80;;;1.70;;
9968;SDS011;5025;48.890;9.278;2022-09-16T15:02:28;2.20;;;1.50;;
9968;SDS011;5025;48.890;9.278;2022-09-16T15:05:20;2.03;;;1.50;;
9968;SDS011;5025;48.890;9.278;2022-09-16T15:10:45;2.53;;;1.50;;
9968;SDS011;5025;48.890;9.278;2022-09-16T15:13:12;1.73;;;1.63;;
9968;SDS011;5025;48.890;9.278;2022-09-16T15:15:44;4.07;;;1.70;;
9968;SDS011;5025;48.890;9.278;2022-09-16T15:20:50;2.23;;;1.43;;
9968;SDS011;5025;48.890;9.278;2022-09-16T15:23:37;2.77;;;1.70;;
9968;SDS011;5025;48.890;9.278;2022-09-16T15:28:32;1.87;;;1.73;;
9968;SDS011;5025;48.890;9.278;2022-09-16T15:30:58;2.43;;;1.70;;
9968;SDS011;5025;48.890;9.278;2022-09-16T15:35:59;2.20;;;1.47;;
9968;SDS011;5025;48.890;9.278;2022-09-16T15:38:26;1.93;;;1.80;;
9968;SDS011;5025;48.890;9.278;2022-09-16T15:41:02;2.50;;;1.40;;
9968;SDS011;5025;48.890;9.278;2022-09-16T15:43:39;1.97;;;1.70;;
9968;SDS011;5025;48.890;9.278;2022-09-16T15:46:14;4.53;;;1.70;;
9968;SDS011;5025;48.890;9.278;2022-09-16T15:54:24;2.33;;;1.60;;
9968;SDS011;5025;48.890;9.278;2022-09-16T16:02:04;3.43;;;1.70;;
9968;SDS011;5025;48.890;9.278;2022-09-16T16:04:43;2.57;;;1.73;;
9968;SDS011;5025;48.890;9.278;2022-09-16T16:07:08;2.80;;;1.67;;
9968;SDS011;5025;48.890;9.278;2022-09-16T16:09:35;2.73;;;1.77;;
9968;SDS011;5025;48.890;9.278;2022-09-16T16:12:04;2.33;;;1.80;;
9968;SDS011;5025;48.890;9.278;2022-09-16T16:14:32;1.67;;;1.50;;
9968;SDS011;5025;48.890;9.278;2022-09-16T16:16:59;3.50;;;1.73;;
9968;SDS011;5025;48.890;9.278;2022-09-16T16:19:26;2.03;;;1.50;;
9968;SDS011;5025;48.890;9.278;2022-09-16T16:21:53;3.00;;;1.50;;
9968;SDS011;5025;48.890;9.278;2022-09-16T16:24:18;2.80;;;1.40;;
9968;SDS011;5025;48.890;9.278;2022-09-16T16:26:44;1.60;;;1.50;;
9968;SDS011;5025;48.890;9.278;2022-09-16T16:29:09;2.07;;;1.47;;
9968;SDS011;5025;48.890;9.278;2022-09-16T16:31:34;1.77;;;1.40;;
9968;SDS011;5025;48.890;9.278;2022-09-16T16:34:01;1.50;;;1.40;;
9968;SDS011;5025;48.890;9.278;2022-09-16T16:36:27;1.70;;;1.50;;
9968;SDS011;5025;48.890;9.278;2022-09-16T16:38:52;1.57;;;1.43;;
9968;SDS011;5025;48.890;9.278;2022-09-16T16:41:21;1.23;;;1.13;;
9968;SDS011;5025;48.890;9.278;2022-09-16T16:43:48;1.43;;;1.20;;
9968;SDS011;5025;48.890;9.278;2022-09-16T16:46:15;2.40;;;1.40;;
9968;SDS011;5025;48.890;9.278;2022-09-16T16:48:41;1.57;;;1.47;;
9968;SDS011;5025;48.890;9.278;2022-09-16T16:51:08;1.43;;;1.33;;
9968;SDS011;5025;48.890;9.278;2022-09-16T16:53:35;1.27;;;0.90;;
9968;SDS011;5025;48.890;9.278;2022-09-16T16:56:08;1.73;;;1.00;;
9968;SDS011;5025;48.890;9.278;2022-09-16T16:58:35;1.30;;;1.20;;
9968;SDS011;5025;48.890;9.278;2022-09-16T17:01:11;1.00;;;1.00;;
9968;SDS011;5025;48.890;9.278;2022-09-16T17:03:38;1.10;;;1.03;;
9968;SDS011;5025;48.890;9.278;2022-09-16T17:06:05;1.00;;;1.00;;
9968;SDS011;5025;48.890;9.278;2022-09-16T17:08:31;0.90;;;0.90;;
9968;SDS011;5025;48.890;9.278;2022-09-16T17:13:36;1.00;;;0.90;;
9968;SDS011;5025;48.890;9.278;2022-09-16T17:16:02;0.80;;;0.80;;
9968;SDS011;5025;48.890;9.278;2022-09-16T17:18:28;0.90;;;0.90;;
9968;SDS011;5025;48.890;9.278;2022-09-16T17:20:53;2.07;;;0.90;;
9968;SDS011;5025;48.890;9.278;2022-09-16T17:23:25;1.00;;;0.90;;
9968;SDS011;5025;48.890;9.278;2022-09-16T17:25:50;2.07;;;0.83;;
9968;SDS011;5025;48.890;9.278;2022-09-16T17:28:16;1.13;;;0.73;;
9968;SDS011;5025;48.890;9.278;2022-09-16T17:30:42;0.77;;;0.70;;
9968;SDS011;5025;48.890;9.278;2022-09-16T17:33:07;0.70;;;0.70;;
9968;SDS011;5025;48.890;9.278;2022-09-16T17:35:33;0.70;;;0.70;;
9968;SDS011;5025;48.890;9.278;2022-09-16T17:37:59;0.70;;;0.70;;
9968;SDS011;5025;48.890;9.278;2022-09-16T17:40:24;0.60;;;0.60;;
9968;SDS011;5025;48.890;9.278;2022-09-16T17:42:50;1.10;;;0.60;;
9968;SDS011;5025;48.890;9.278;2022-09-16T17:45:16;0.50;;;0.50;;
9968;SDS011;5025;48.890;9.278;2022-09-16T17:47:41;0.93;;;0.80;;
9968;SDS011;5025;48.890;9.278;2022-09-16T17:50:07;0.60;;;0.60;;
9968;SDS011;5025;48.890;9.278;2022-09-16T17:52:32;0.90;;;0.90;;
9968;SDS011;5025;48.890;9.278;2022-09-16T17:54:57;0.70;;;0.70;;
9968;SDS011;5025;48.890;9.278;2022-09-16T17:57:23;0.60;;;0.60;;
9968;SDS011;5025;48.890;9.278;2022-09-16T17:59:49;1.60;;;0.80;;
9968;SDS011;5025;48.890;9.278;2022-09-16T18:02:15;1.00;;;0.90;;
9968;SDS011;5025;48.890;9.278;2022-09-16T18:04:40;0.87;;;0.80;;
9968;SDS011;5025;48.890;9.278;2022-09-16T18:07:07;0.67;;;0.67;;
9968;SDS011;5025;48.890;9.278;2022-09-16T18:09:33;0.77;;;0.77;;
9968;SDS011;5025;48.890;9.278;2022-09-16T18:11:58;0.77;;;0.70;;
9968;SDS011;5025;48.890;9.278;2022-09-16T18:14:24;0.70;;;0.70;;
9968;SDS011;5025;48.890;9.278;2022-09-16T18:16:49;1.27;;;0.87;;
9968;SDS011;5025;48.890;9.278;2022-09-16T18:19:14;1.83;;;0.83;;
9968;SDS011;5025;48.890;9.278;2022-09-16T18:21:40;1.70;;;0.70;;
9968;SDS011;5025;48.890;9.278;2022-09-16T18:24:05;0.80;;;0.80;;
9968;SDS011;5025;48.890;9.278;2022-09-16T18:26:35;1.30;;;1.03;;
9968;SDS011;5025;48.890;9.278;2022-09-16T18:29:02;0.80;;;0.80;;
9968;SDS011;5025;48.890;9.278;2022-09-16T18:31:28;0.87;;;0.87;;
9968;SDS011;5025;48.890;9.278;2022-09-16T18:33:53;0.90;;;0.90;;
9968;SDS011;5025;48.890;9.278;2022-09-16T18:36:20;0.70;;;0.70;;